createdAt,value
2019-02-27T00:01:41.827Z,14.67
2019-02-27T00:04:12.140Z,15.20
2019-02-27T00:06:42.531Z,15.30
2019-02-27T00:09:12.842Z,12.27
2019-02-27T00:11:45.860Z,16.07
2019-02-27T00:14:15.117Z,13.63
2019-02-27T00:16:45.445Z,14.80
2019-02-27T00:19:16.042Z,13.30
2019-02-27T00:21:46.376Z,15.43
2019-02-27T00:24:16.700Z,14.50
2019-02-27T00:26:46.981Z,14.67
2019-02-27T00:29:17.289Z,14.77
2019-02-27T00:31:47.568Z,16.23
2019-02-27T00:34:17.863Z,15.63
2019-02-27T00:36:48.145Z,13.53
2019-02-27T00:39:18.413Z,12.77
2019-02-27T00:41:48.698Z,16.20
2019-02-27T00:44:18.981Z,13.40
2019-02-27T00:46:49.369Z,13.00
2019-02-27T00:49:19.775Z,13.47
2019-02-27T00:51:50.061Z,26.37
2019-02-27T00:54:20.577Z,13.90
2019-02-27T00:56:50.838Z,13.90
2019-02-27T00:59:21.121Z,13.13
2019-02-27T01:01:51.416Z,14.10
2019-02-27T01:04:21.665Z,17.40
2019-02-27T01:06:51.946Z,13.53
2019-02-27T01:09:22.229Z,15.53
2019-02-27T01:11:52.546Z,13.13
2019-02-27T01:14:22.829Z,13.27
2019-02-27T01:16:53.205Z,16.20
2019-02-27T01:19:23.556Z,15.43
2019-02-27T01:21:53.853Z,16.87
2019-02-27T01:24:24.139Z,12.57
2019-02-27T01:26:54.481Z,14.70
2019-02-27T01:29:24.962Z,14.67
2019-02-27T01:31:57.633Z,12.97
2019-02-27T01:34:27.238Z,14.90
2019-02-27T01:36:58.070Z,13.73
2019-02-27T01:39:29.020Z,14.53
2019-02-27T01:41:59.319Z,13.60
2019-02-27T01:44:29.616Z,13.40
2019-02-27T01:47:02.382Z,13.40
2019-02-27T01:49:32.075Z,13.40
2019-02-27T01:52:02.315Z,15.37
2019-02-27T01:54:32.642Z,14.20
2019-02-27T01:57:03.549Z,12.80
2019-02-27T01:59:34.060Z,12.37
2019-02-27T02:02:04.431Z,16.07
2019-02-27T02:04:34.724Z,17.27
2019-02-27T02:07:06.586Z,13.40
2019-02-27T02:09:38.407Z,15.00
2019-02-27T02:12:21.255Z,19.63
2019-02-27T02:15:13.185Z,16.00
2019-02-27T02:18:23.152Z,18.50
2019-02-27T02:21:28.102Z,20.57
2019-02-27T02:24:40.701Z,17.57
2019-02-27T02:28:03.552Z,16.90
2019-02-27T02:31:06.350Z,16.93
2019-02-27T02:34:05.143Z,14.57
2019-02-27T02:37:11.299Z,16.40
2019-02-27T02:40:11.037Z,17.43
2019-02-27T02:43:40.245Z,16.60
2019-02-27T02:46:14.485Z,18.00
2019-02-27T02:48:54.897Z,14.70
2019-02-27T02:51:44.153Z,15.40
2019-02-27T02:54:38.235Z,17.07
2019-02-27T02:57:36.213Z,17.53
2019-02-27T03:00:37.939Z,14.60
2019-02-27T03:03:42.169Z,17.20
2019-02-27T03:06:53.862Z,15.93
2019-02-27T03:10:19.912Z,17.70
2019-02-27T03:13:18.890Z,14.27
2019-02-27T03:16:09.005Z,15.23
2019-02-27T03:18:48.843Z,13.37
2019-02-27T03:22:03.590Z,13.53
2019-02-27T03:25:28.273Z,12.70
2019-02-27T03:28:49.538Z,15.77
2019-02-27T03:31:57.557Z,10.73
2019-02-27T03:34:51.324Z,12.97
2019-02-27T03:38:02.363Z,13.70
2019-02-27T03:40:53.092Z,11.90
2019-02-27T03:44:00.917Z,11.43
2019-02-27T03:46:52.528Z,11.67
2019-02-27T03:50:15.015Z,13.43
2019-02-27T03:53:19.922Z,12.10
2019-02-27T03:56:28.236Z,11.83
2019-02-27T03:59:08.335Z,14.73
2019-02-27T04:02:25.315Z,13.33
2019-02-27T04:05:48.874Z,12.37
2019-02-27T04:09:00.049Z,13.60
2019-02-27T04:11:30.483Z,13.87
2019-02-27T04:14:04.967Z,14.50
2019-02-27T04:16:33.066Z,13.17
2019-02-27T04:19:04.960Z,13.20
2019-02-27T04:21:35.789Z,13.33
2019-02-27T04:24:06.167Z,11.77
2019-02-27T04:26:41.543Z,14.33
2019-02-27T04:29:08.675Z,14.43
2019-02-27T04:31:39.024Z,13.63
2019-02-27T04:34:09.476Z,14.17
2019-02-27T04:36:40.284Z,15.87
2019-02-27T04:39:10.628Z,16.23
2019-02-27T04:41:41.318Z,14.10
2019-02-27T04:44:11.635Z,14.67
2019-02-27T04:46:41.909Z,19.40
2019-02-27T04:49:12.208Z,16.23
2019-02-27T04:51:42.501Z,13.53
2019-02-27T04:54:12.814Z,15.17
2019-02-27T04:56:44.553Z,13.90
2019-02-27T04:59:18.740Z,14.27
2019-02-27T05:01:52.719Z,15.13
2019-02-27T05:04:24.548Z,14.80
2019-02-27T05:06:55.119Z,11.93
2019-02-27T05:09:25.406Z,15.30
2019-02-27T05:11:55.666Z,14.50
2019-02-27T05:14:27.464Z,13.00
2019-02-27T05:16:59.615Z,12.40
2019-02-27T05:19:30.266Z,13.77
2019-02-27T05:22:01.350Z,12.80
2019-02-27T05:24:31.655Z,13.67
2019-02-27T05:27:01.944Z,15.57
2019-02-27T05:29:32.289Z,13.87
2019-02-27T05:32:02.645Z,15.27
2019-02-27T05:34:33.073Z,16.83
2019-02-27T05:37:05.342Z,13.77
2019-02-27T05:39:35.795Z,16.07
2019-02-27T05:42:06.883Z,13.60
2019-02-27T05:44:39.381Z,13.83
2019-02-27T05:47:11.202Z,13.87
2019-02-27T05:49:41.484Z,14.87
2019-02-27T05:52:11.813Z,15.90
2019-02-27T05:54:43.977Z,14.23
2019-02-27T05:57:14.429Z,12.23
2019-02-27T05:59:45.235Z,15.33
2019-02-27T06:02:15.507Z,14.67
2019-02-27T06:04:45.894Z,14.67
2019-02-27T06:07:18.717Z,11.33
2019-02-27T06:09:49.047Z,12.03
2019-02-27T06:12:19.469Z,13.87
2019-02-27T06:14:49.768Z,12.93
2019-02-27T06:17:20.080Z,12.37
2019-02-27T06:19:50.357Z,11.83
2019-02-27T06:22:21.057Z,12.00
2019-02-27T06:24:51.388Z,12.97
2019-02-27T06:27:21.677Z,15.00
2019-02-27T06:29:52.013Z,14.93
2019-02-27T06:32:22.308Z,13.37
2019-02-27T06:34:52.705Z,12.03
2019-02-27T06:37:22.993Z,15.40
2019-02-27T06:39:54.190Z,13.03
2019-02-27T06:42:24.617Z,12.67
2019-02-27T06:44:55.209Z,13.50
2019-02-27T06:47:25.481Z,12.70
2019-02-27T06:49:55.876Z,12.23
2019-02-27T06:52:26.154Z,11.67
2019-02-27T06:54:56.749Z,13.20
2019-02-27T06:57:27.035Z,12.10
2019-02-27T07:00:01.999Z,13.03
2019-02-27T07:02:29.504Z,14.80
2019-02-27T07:04:59.792Z,14.83
2019-02-27T07:07:31.313Z,12.17
2019-02-27T07:10:02.262Z,16.03
2019-02-27T07:12:32.629Z,15.27
2019-02-27T07:15:02.908Z,14.87
2019-02-27T07:17:33.204Z,15.43
2019-02-27T07:20:03.781Z,13.73
2019-02-27T07:22:34.063Z,14.67
2019-02-27T07:25:06.627Z,15.67
2019-02-27T07:27:36.456Z,14.53
2019-02-27T07:30:08.147Z,13.50
2019-02-27T07:32:38.665Z,12.47
2019-02-27T07:35:09.158Z,13.50
2019-02-27T07:37:39.521Z,13.07
2019-02-27T07:40:11.756Z,14.77
2019-02-27T07:42:42.049Z,15.33
2019-02-27T07:45:14.656Z,11.70
2019-02-27T07:47:44.944Z,12.47
2019-02-27T07:50:16.019Z,13.83
2019-02-27T07:52:46.322Z,13.73
2019-02-27T07:55:21.816Z,12.50
2019-02-27T07:57:48.598Z,12.57
2019-02-27T08:00:18.949Z,13.77
2019-02-27T08:02:49.230Z,14.57
2019-02-27T08:05:19.688Z,14.40
2019-02-27T08:07:50.054Z,13.47
2019-02-27T08:10:20.573Z,13.33
2019-02-27T08:12:55.594Z,15.20
2019-02-27T08:15:22.910Z,13.33
2019-02-27T08:17:57.610Z,13.80
2019-02-27T08:20:25.167Z,13.40
2019-02-27T08:22:55.470Z,16.73
2019-02-27T08:25:25.788Z,12.43
2019-02-27T08:27:56.123Z,13.50
2019-02-27T08:30:26.476Z,11.40
2019-02-27T08:32:56.922Z,14.90
2019-02-27T08:35:27.863Z,16.77
2019-02-27T08:38:02.620Z,12.93
2019-02-27T08:40:30.525Z,15.87
2019-02-27T08:43:00.873Z,14.57
2019-02-27T08:45:31.281Z,14.13
2019-02-27T08:48:01.624Z,13.20
2019-02-27T08:51:24.821Z,12.63
2019-02-27T08:53:59.019Z,15.63
2019-02-27T08:56:30.070Z,15.80
2019-02-27T08:59:04.981Z,14.13
2019-02-27T09:01:32.869Z,13.93
2019-02-27T09:04:03.175Z,13.17
2019-02-27T09:06:33.661Z,16.77
2019-02-27T09:09:05.061Z,14.37
2019-02-27T09:11:39.647Z,16.23
2019-02-27T09:14:07.979Z,14.30
2019-02-27T09:16:39.259Z,14.40
2019-02-27T09:19:10.155Z,14.10
2019-02-27T09:21:42.630Z,14.27
2019-02-27T09:24:13.033Z,14.73
2019-02-27T09:26:43.608Z,13.13
2019-02-27T09:29:18.466Z,13.37
2019-02-27T09:31:50.845Z,13.37
2019-02-27T09:34:18.740Z,14.67
2019-02-27T09:36:49.246Z,13.27
2019-02-27T09:39:19.607Z,14.07
2019-02-27T09:41:51.254Z,12.87
2019-02-27T09:44:21.631Z,14.90
2019-02-27T09:46:52.414Z,13.30
2019-02-27T09:49:22.850Z,12.77
2019-02-27T09:51:56.367Z,11.37
2019-02-27T09:54:26.126Z,14.27
2019-02-27T09:56:56.567Z,11.67
2019-02-27T09:59:26.938Z,12.43
2019-02-27T10:01:57.475Z,13.43
2019-02-27T10:04:28.817Z,13.37
2019-02-27T10:06:59.685Z,13.20
2019-02-27T10:09:34.673Z,12.47
2019-02-27T10:12:01.643Z,11.20
2019-02-27T10:14:32.162Z,12.90
2019-02-27T10:17:02.770Z,12.07
2019-02-27T10:19:33.370Z,12.33
2019-02-27T10:22:03.712Z,12.90
2019-02-27T10:24:36.854Z,11.97
2019-02-27T10:27:05.998Z,11.47
2019-02-27T10:29:36.359Z,12.83
2019-02-27T10:32:06.647Z,12.07
2019-02-27T10:34:36.996Z,11.13
2019-02-27T10:37:07.685Z,9.53
2019-02-27T10:39:38.597Z,8.70
2019-02-27T10:42:09.065Z,9.17
2019-02-27T10:44:40.286Z,9.20
2019-02-27T10:47:10.596Z,9.40
2019-02-27T10:49:43.850Z,9.93
2019-02-27T10:52:16.267Z,10.50
2019-02-27T10:54:47.838Z,10.17
2019-02-27T10:57:18.638Z,9.50
2019-02-27T10:59:49.510Z,9.07
2019-02-27T11:02:19.881Z,10.33
2019-02-27T11:04:50.233Z,9.53
2019-02-27T11:07:20.864Z,9.53
2019-02-27T11:09:53.738Z,10.97
2019-02-27T11:12:26.790Z,11.40
2019-02-27T11:14:57.584Z,9.53
2019-02-27T11:17:27.889Z,9.63
2019-02-27T11:19:58.480Z,8.70
2019-02-27T11:22:41.272Z,9.10
2019-02-27T11:25:13.841Z,10.70
2019-02-27T11:27:44.212Z,11.77
2019-02-27T11:30:16.805Z,9.70
2019-02-27T11:32:47.158Z,8.13
2019-02-27T11:35:17.575Z,9.63
2019-02-27T11:37:48.035Z,10.43
2019-02-27T11:40:20.531Z,8.30
2019-02-27T11:42:50.836Z,8.73
2019-02-27T11:45:24.522Z,7.97
2019-02-27T11:47:53.379Z,8.97
2019-02-27T11:50:23.705Z,9.80
2019-02-27T11:52:54.018Z,8.50
2019-02-27T11:55:24.658Z,8.77
2019-02-27T11:57:55.074Z,7.97
2019-02-27T12:00:26.858Z,8.97
2019-02-27T12:02:58.056Z,8.53
2019-02-27T12:05:33.871Z,10.07
2019-02-27T12:08:00.834Z,9.20
2019-02-27T12:10:31.601Z,7.63
2019-02-27T12:13:01.994Z,8.07
2019-02-27T12:15:32.537Z,9.67
2019-02-27T12:18:03.600Z,10.37
2019-02-27T12:20:33.986Z,8.27
2019-02-27T12:23:07.509Z,8.87
2019-02-27T12:25:37.170Z,7.83
2019-02-27T12:28:07.746Z,7.67
2019-02-27T12:30:38.239Z,8.40
2019-02-27T12:33:08.789Z,8.43
2019-02-27T12:35:39.188Z,9.93
2019-02-27T12:38:11.348Z,9.23
2019-02-27T12:40:41.553Z,8.30
2019-02-27T12:43:17.229Z,9.23
2019-02-27T12:45:43.820Z,9.93
2019-02-27T12:48:14.134Z,9.27
2019-02-27T12:50:44.466Z,9.03
2019-02-27T12:53:14.883Z,9.50
2019-02-27T12:55:45.384Z,8.90
2019-02-27T12:58:15.666Z,9.23
2019-02-27T13:00:46.017Z,9.03
2019-02-27T13:03:16.414Z,9.00
2019-02-27T13:05:46.749Z,9.40
2019-02-27T13:08:18.923Z,9.03
2019-02-27T13:10:49.129Z,9.30
2019-02-27T13:13:19.477Z,10.33
2019-02-27T13:15:49.845Z,10.43
2019-02-27T13:18:20.155Z,8.43
2019-02-27T13:20:50.460Z,8.93
2019-02-27T13:23:20.969Z,7.93
2019-02-27T13:25:51.290Z,8.23
2019-02-27T13:28:22.904Z,9.30
2019-02-27T13:30:53.213Z,7.97
2019-02-27T13:33:23.530Z,7.03
2019-02-27T13:35:56.826Z,11.37
2019-02-27T13:38:25.862Z,8.73
2019-02-27T13:40:56.195Z,8.47
2019-02-27T13:43:27.151Z,9.87
2019-02-27T13:45:58.097Z,8.53
2019-02-27T13:48:28.513Z,9.67
2019-02-27T13:50:59.649Z,11.27
2019-02-27T13:53:30.885Z,7.70
2019-02-27T13:56:01.250Z,10.17
2019-02-27T13:58:36.497Z,10.20
2019-02-27T14:01:08.515Z,8.93
2019-02-27T14:03:41.336Z,9.97
2019-02-27T14:06:13.379Z,9.47
2019-02-27T14:08:44.749Z,10.43
2019-02-27T14:11:15.458Z,8.60
2019-02-27T14:13:45.925Z,8.90
2019-02-27T14:16:16.843Z,8.90
2019-02-27T14:18:49.762Z,10.70
2019-02-27T14:21:18.844Z,8.50
2019-02-27T14:23:49.185Z,10.27
2019-02-27T14:26:19.616Z,10.00
2019-02-27T14:28:52.149Z,9.93
2019-02-27T14:31:22.493Z,9.77
2019-02-27T14:33:54.244Z,9.40
2019-02-27T14:36:24.945Z,8.50
2019-02-27T14:38:56.517Z,8.70
2019-02-27T14:41:27.021Z,10.57
2019-02-27T14:43:58.478Z,9.83
2019-02-27T14:46:28.994Z,9.57
2019-02-27T14:48:59.333Z,8.17
2019-02-27T14:51:30.354Z,7.13
2019-02-27T14:54:00.700Z,7.57
2019-02-27T14:56:31.121Z,9.60
2019-02-27T14:59:01.445Z,8.77
2019-02-27T15:01:31.754Z,10.50
2019-02-27T15:04:02.120Z,8.97
2019-02-27T15:06:32.429Z,7.90
2019-02-27T15:09:06.276Z,9.13
2019-02-27T15:11:36.715Z,7.93
2019-02-27T15:14:07.221Z,10.60
2019-02-27T15:16:37.536Z,8.10
2019-02-27T15:19:08.097Z,9.00
2019-02-27T15:21:38.578Z,7.37
2019-02-27T15:24:10.469Z,8.57
2019-02-27T15:26:45.271Z,8.33
2019-02-27T15:29:13.301Z,7.50
2019-02-27T15:31:43.618Z,7.30
2019-02-27T15:34:13.950Z,8.10
2019-02-27T15:36:44.249Z,9.37
2019-02-27T15:39:20.242Z,7.07
2019-02-27T15:41:46.557Z,7.13
2019-02-27T15:44:16.894Z,7.67
2019-02-27T15:46:47.301Z,7.43
2019-02-27T15:49:17.831Z,7.33
2019-02-27T15:51:48.212Z,7.70
2019-02-27T15:54:23.827Z,6.27
2019-02-27T15:56:50.533Z,8.00
2019-02-27T15:59:20.934Z,7.73
2019-02-27T16:01:51.283Z,9.03
2019-02-27T16:04:21.908Z,8.33
2019-02-27T16:06:52.494Z,10.27
2019-02-27T16:09:22.806Z,7.73
2019-02-27T16:11:53.126Z,10.90
2019-02-27T16:14:23.459Z,8.10
2019-02-27T16:16:54.373Z,9.47
2019-02-27T16:19:25.785Z,10.73
2019-02-27T16:21:57.223Z,8.53
2019-02-27T16:24:28.274Z,7.60
2019-02-27T16:27:01.297Z,9.10
2019-02-27T16:29:30.681Z,9.13
2019-02-27T16:32:01.041Z,8.47
2019-02-27T16:34:33.238Z,9.37
2019-02-27T16:37:03.332Z,7.97
2019-02-27T16:39:33.782Z,10.77
2019-02-27T16:42:05.999Z,9.70
2019-02-27T16:44:36.013Z,13.60
2019-02-27T16:47:07.816Z,9.30
2019-02-27T16:49:39.913Z,8.87
2019-02-27T16:52:10.215Z,10.17
2019-02-27T16:54:40.766Z,9.13
2019-02-27T16:57:11.080Z,9.50
2019-02-27T16:59:44.939Z,9.00
2019-02-27T17:02:14.233Z,11.97
2019-02-27T17:04:44.577Z,9.43
2019-02-27T17:07:14.881Z,9.30
2019-02-27T17:09:45.467Z,9.97
2019-02-27T17:12:15.894Z,11.23
2019-02-27T17:14:46.270Z,9.40
2019-02-27T17:17:18.828Z,10.10
2019-02-27T17:19:48.583Z,12.03
2019-02-27T17:22:18.884Z,9.37
2019-02-27T17:24:49.290Z,8.67
2019-02-27T17:27:20.741Z,9.40
2019-02-27T17:29:51.266Z,10.23
2019-02-27T17:32:21.574Z,7.73
2019-02-27T17:34:51.961Z,9.87
2019-02-27T17:37:22.294Z,10.67
2019-02-27T17:39:52.642Z,8.57
2019-02-27T17:42:22.951Z,8.43
2019-02-27T17:44:53.409Z,5.77
2019-02-27T17:47:28.532Z,8.37
2019-02-27T17:49:57.484Z,7.60
2019-02-27T17:52:27.632Z,7.53
2019-02-27T17:54:57.957Z,7.67
2019-02-27T17:57:28.308Z,6.57
2019-02-27T17:59:58.604Z,6.30
2019-02-27T18:02:30.155Z,7.17
2019-02-27T18:05:01.709Z,7.50
2019-02-27T18:07:34.456Z,6.67
2019-02-27T18:10:06.190Z,6.50
2019-02-27T18:12:36.562Z,7.23
2019-02-27T18:15:10.499Z,7.10
2019-02-27T18:17:41.034Z,6.67
2019-02-27T18:20:11.349Z,7.43
2019-02-27T18:22:41.810Z,8.20
2019-02-27T18:25:12.718Z,8.77
2019-02-27T18:27:43.433Z,6.83
2019-02-27T18:30:15.595Z,7.60
2019-02-27T18:32:47.161Z,6.87
2019-02-27T18:35:18.915Z,7.60
2019-02-27T18:37:53.288Z,8.57
2019-02-27T18:40:21.799Z,8.27
2019-02-27T18:42:55.593Z,8.77
2019-02-27T18:45:24.436Z,8.63
2019-02-27T18:47:54.722Z,8.50
2019-02-27T18:50:26.071Z,7.93
2019-02-27T18:52:56.406Z,7.33
2019-02-27T18:55:30.942Z,10.60
2019-02-27T18:57:58.965Z,7.20
2019-02-27T19:00:33.399Z,8.60
2019-02-27T19:03:03.200Z,8.30
2019-02-27T19:05:33.522Z,8.43
2019-02-27T19:08:04.113Z,6.33
2019-02-27T19:10:34.625Z,9.37
2019-02-27T19:13:05.074Z,6.43
2019-02-27T19:15:35.360Z,7.80
2019-02-27T19:18:06.512Z,10.17
2019-02-27T19:20:38.555Z,7.03
2019-02-27T19:23:08.905Z,9.00
2019-02-27T19:25:39.552Z,9.67
2019-02-27T19:28:10.464Z,8.43
2019-02-27T19:30:42.469Z,6.77
2019-02-27T19:33:13.074Z,8.63
2019-02-27T19:35:43.600Z,9.60
2019-02-27T19:38:13.923Z,9.70
2019-02-27T19:40:44.227Z,7.53
2019-02-27T19:43:18.077Z,8.07
2019-02-27T19:45:46.506Z,8.30
2019-02-27T19:48:17.991Z,7.93
2019-02-27T19:50:48.465Z,8.67
2019-02-27T19:53:18.842Z,8.23
2019-02-27T19:55:49.203Z,6.50
2019-02-27T19:58:19.625Z,8.87
2019-02-27T20:00:49.945Z,10.00
2019-02-27T20:03:21.373Z,7.03
2019-02-27T20:05:53.240Z,8.33
2019-02-27T20:08:23.653Z,9.50
2019-02-27T20:10:54.082Z,10.73
2019-02-27T20:13:24.641Z,10.57
2019-02-27T20:15:56.406Z,10.77
2019-02-27T20:18:26.862Z,10.23
2019-02-27T20:20:57.347Z,10.37
2019-02-27T20:23:27.662Z,9.67
2019-02-27T20:25:58.118Z,10.93
2019-02-27T20:28:29.058Z,12.33
2019-02-27T20:31:00.585Z,8.83
2019-02-27T20:33:30.918Z,12.17
2019-02-27T20:36:01.302Z,10.10
2019-02-27T20:38:31.852Z,11.23
2019-02-27T20:41:02.297Z,9.40
2019-02-27T20:43:32.878Z,11.00
2019-02-27T20:46:03.293Z,10.77
2019-02-27T20:48:35.765Z,13.07
2019-02-27T20:51:06.716Z,12.23
2019-02-27T20:53:37.237Z,11.50
2019-02-27T20:56:09.277Z,9.60
2019-02-27T20:58:39.966Z,11.37
2019-02-27T21:01:13.641Z,9.93
2019-02-27T21:03:42.335Z,11.80
2019-02-27T21:06:13.734Z,9.80
2019-02-27T21:08:44.118Z,10.20
2019-02-27T21:11:15.600Z,12.00
2019-02-27T21:13:49.385Z,10.00
2019-02-27T21:16:18.364Z,11.93
2019-02-27T21:18:48.777Z,10.57
2019-02-27T21:21:19.864Z,9.40
2019-02-27T21:23:51.386Z,12.33
2019-02-27T21:26:23.650Z,11.73
2019-02-27T21:28:58.548Z,9.87
2019-02-27T21:31:27.646Z,11.13
2019-02-27T21:33:58.099Z,11.80
2019-02-27T21:36:28.399Z,13.53
2019-02-27T21:38:58.759Z,11.80
2019-02-27T21:41:29.135Z,13.77
2019-02-27T21:43:59.546Z,11.80
2019-02-27T21:46:29.825Z,10.57
2019-02-27T21:49:00.153Z,13.27
2019-02-27T21:51:30.757Z,11.00
2019-02-27T21:54:03.837Z,12.63
2019-02-27T21:56:33.157Z,12.20
2019-02-27T21:59:04.705Z,12.57
2019-02-27T22:01:35.465Z,11.80
2019-02-27T22:04:05.814Z,10.77
2019-02-27T22:06:36.141Z,10.90
2019-02-27T22:09:06.920Z,12.07
2019-02-27T22:11:37.433Z,10.93
2019-02-27T22:14:08.045Z,14.80
2019-02-27T22:16:38.559Z,14.20
2019-02-27T22:19:08.889Z,11.50
2019-02-27T22:21:39.345Z,11.63
2019-02-27T22:24:09.842Z,10.80
2019-02-27T22:26:40.510Z,12.27
2019-02-27T22:29:10.925Z,11.53
2019-02-27T22:31:41.369Z,11.83
2019-02-27T22:34:11.733Z,11.60
2019-02-27T22:36:43.987Z,11.13
2019-02-27T22:39:14.074Z,13.83
2019-02-27T22:41:44.386Z,13.70
2019-02-27T22:44:14.913Z,10.60
2019-02-27T22:46:47.763Z,10.27
2019-02-27T22:49:17.394Z,11.20
2019-02-27T22:51:48.415Z,11.00
2019-02-27T22:54:18.778Z,11.03
2019-02-27T22:56:51.738Z,9.63
2019-02-27T22:59:22.100Z,14.13
2019-02-27T23:01:54.079Z,11.57
2019-02-27T23:04:24.810Z,10.57
2019-02-27T23:06:55.628Z,9.83
2019-02-27T23:09:26.861Z,12.13
2019-02-27T23:11:57.302Z,11.50
2019-02-27T23:14:28.500Z,9.87
2019-02-27T23:17:01.338Z,10.77
2019-02-27T23:19:32.261Z,10.87
2019-02-27T23:22:04.754Z,9.87
2019-02-27T23:24:36.408Z,10.93
2019-02-27T23:27:07.130Z,12.70
2019-02-27T23:29:42.185Z,10.60
2019-02-27T23:32:14.710Z,12.63
2019-02-27T23:34:46.469Z,11.47
2019-02-27T23:37:19.153Z,10.07
2019-02-27T23:39:50.962Z,10.70
2019-02-27T23:42:21.284Z,10.33
2019-02-27T23:44:51.686Z,9.47
2019-02-27T23:47:22.161Z,8.87
2019-02-27T23:49:52.801Z,8.70
2019-02-27T23:52:24.058Z,8.17
2019-02-27T23:54:54.831Z,10.73
2019-02-27T23:57:25.766Z,9.93
2019-02-27T23:59:56.500Z,10.47
